x

South Nomad (46036) Wave Buoy

10:00am - Wed 5th Aug 2015 All times are UTC.

  • Sig Wave height 4.3ft
  • Peak Period 7s
  • Wind
    7mph, 9mph gusts
  • Sea Temp 64°f
  • Air Temp 62°f
  • Sea Pressure 1021.9mb

More Historic Weather Station data

Upgrade to MSW Pro to gain access to the past 30 days of data for over 8000 Wavebouys and Weather Stations around the globe.

Join Pro

Comparision Forecast

View Surf forecast
   
Wed 08/05 10:00am 4.5ft 7s 7 9 mph 1021.9mb 64f 62f
9:00am 4ft 6s 4 7 mph 1022.1mb 64f 62f
8:00am 4ft 6s 4 7 mph 1021.9mb 64f 62f
7:00am 4.5ft 7s 4 7 mph 1021.9mb 64f 62f
6:00am 4ft 7s 2 4 mph 1021.7mb 64f 62f
5:00am 4ft 7s  -  2 mph 1021.5mb 64f 62f
4:00am 3.5ft 7s 2
mph
1021.1mb 64f 62f
3:00am 4ft 8s  -  4 mph 1020.9mb 64f 62f
2:00am 4ft 7s 4 7 mph 1020.7mb 64f 62f
1:00am 3.5ft 7s 7
mph
1020.5mb 64f 62f
12:00am 3.5ft 7s 7 9 mph 1020.5mb 64f 61f
Tue 08/04 11:00pm 4ft 7s 9 11 mph 1020.5mb 64f 60f
10:00pm 4ft 6s 9 11 mph 1021mb 64f 60f
9:00pm 3.5ft 7s 9 11 mph 1020.8mb 64f 60f
8:00pm 3.5ft 7s 9 11 mph 1021.1mb 64f 60f
7:00pm 4ft 7s 7 9 mph 1021.5mb 64f 60f
6:00pm 3.5ft 7s 9 11 mph 1021.5mb 64f 61f
5:00pm 3.5ft 7s 11 13 mph 1021.6mb 64f 62f
4:00pm 3.5ft 7s 9 11 mph 1021.9mb 64f 62f
3:00pm 4ft 7s 9 11 mph 1021.9mb 64f 61f
2:00pm 4ft 6s 11
mph
1022.5mb 64f 61f
1:00pm 4ft 6s 11 13 mph 1022.6mb 64f 61f
12:00pm 4.5ft 6s 11 13 mph 1022.8mb 64f 61f
11:00am 4.5ft 7s 11 16 mph 1023mb 64f 61f
10:00am 4.5ft 6s 13 16 mph 1023.2mb 64f 61f
9:00am 4.5ft 7s 13 18 mph 1023.3mb 64f 61f
8:00am 4.5ft 6s 13 16 mph 1023.5mb 64f 61f
7:00am 4ft 7s 13 16 mph 1023.8mb 64f 61f
6:00am 4ft 6s 13 16 mph 1024mb 64f 61f
5:00am 4ft 6s 13 16 mph 1024mb 64f 61f
4:00am 4ft 7s 11 13 mph 1023.8mb 64f 61f
3:00am 4.5ft 7s 13 16 mph 1023.6mb 64f 61f
2:00am 4.5ft 6s 13 16 mph 1023.4mb 64f 62f
1:00am 4.5ft 6s 13 16 mph 1023.4mb 64f 62f
12:00am 4.5ft 6s 13 18 mph 1023.4mb 64f 62f
Mon 08/03 11:00pm 5ft 6s 13 16 mph 1023.4mb 64f 62f
10:00pm 5ft 6s 13 16 mph 1023.3mb 64f 62f
9:00pm 5ft 6s 16 18 mph 1023.2mb 64f 62f
8:00pm 4.5ft 6s 16 20 mph 1022.8mb 64f 62f
7:00pm 4.5ft 6s 16 20 mph 1022.6mb 64f 62f
6:00pm 4.5ft 6s 16 18 mph 1022.5mb 64f 62f
5:00pm 5ft 6s 16 18 mph 1022.4mb 64f 61f
4:00pm 5ft 6s 16 20 mph 1022.1mb 64f 61f
3:00pm 5ft 6s 16 20 mph 1021.7mb 64f 61f
2:00pm 5ft 6s 18 22 mph 1021.3mb 64f 61f
1:00pm 5ft 6s 18 22 mph 1020.8mb 64f 61f
12:00pm 5ft 6s 18 22 mph 1020.5mb 64f 61f
11:00am 5ft 6s 18 20 mph 1020.3mb 64f 62f
10:00am 5ft 5s 18 20 mph 1020.1mb 64f 62f
9:00am 5ft 6s 18 22 mph 1020.2mb 64f 62f
8:00am 4.5ft 6s 18 20 mph 1020.3mb 64f 62f
7:00am 4.5ft 6s 16 20 mph 1020.3mb 64f 62f
6:00am 4.5ft  -  16 18 mph 1020.2mb 64f 62f
5:00am 4.5ft 6s 16 20 mph 1020.2mb 64f 61f
4:00am 4.5ft 6s 16 20 mph 1019.9mb 64f 61f
3:00am 4.5ft 5s 16 20 mph 1019.8mb 64f 62f
2:00am  -   -  18
mph
- - -
1:00am 4.5ft 14s 20 22 mph 1019.5mb 64f 61f
12:00am 4ft 14s 16 20 mph 1019.5mb 64f 62f
Sun 08/02 11:00pm 3.5ft 5s 13 18 mph 1019.6mb 64f 61f
10:00pm 4ft 5s 13 18 mph 1019.7mb 64f 62f
9:00pm 3.5ft 13s 16 18 mph 1019.6mb 64f 61f
8:00pm 3.5ft 14s 13 16 mph 1019.7mb 64f 62f
7:00pm 3.5ft 12s 13 18 mph 1019.7mb 64f 62f
6:00pm 3ft 14s 13 18 mph 1019.8mb 64f 62f
5:00pm 3ft 13s 11 13 mph 1019.9mb 64f 63f
4:00pm 3ft 14s 9 13 mph 1019.9mb 64f 63f
3:00pm 3ft 14s 9 11 mph 1019.9mb 64f 63f
2:00pm 3ft 14s 11 16 mph 1020mb 64f 63f
1:00pm 3ft 14s 13 16 mph 1019.8mb 64f 63f
12:00pm 3.5ft 13s 11 13 mph 1020mb 64f 63f
11:00am 3.5ft 14s 13 16 mph 1020.1mb 64f 63f
10:00am 3.5ft 13s 13
mph
1020.1mb 64f 63f
9:00am 3.5ft 14s 11 13 mph 1020.3mb 64f 63f
8:00am 3.5ft 14s 9 11 mph 1020.6mb 64f 63f
7:00am 3.5ft 14s 7 9 mph 1020.9mb 64f 63f
6:00am 3.5ft 14s 9 11 mph 1021.4mb 64f 63f
5:00am 3.5ft 14s 11 13 mph 1021.6mb 64f 63f
4:00am 3.5ft 14s 9 11 mph 1021.7mb 64f 63f
3:00am 3.5ft 14s 9 13 mph 1021.8mb 64f 62f
2:00am 3.5ft 14s 9 11 mph 1022mb 64f 62f
1:00am 3.5ft 14s 9 11 mph 1022mb 64f 63f
12:00am 3.5ft 14s 9 13 mph 1022.3mb 64f 63f
Sat 08/01 11:00pm 3.5ft 14s 9 11 mph 1022.6mb 64f 63f
10:00pm 3.5ft 14s 11 13 mph 1022.8mb 64f 62f
9:00pm 3.5ft 14s 9 11 mph 1022.8mb 64f 62f
8:00pm 3.5ft 14s 11 13 mph 1023.1mb 64f 62f
7:00pm 4ft 14s 9 11 mph 1023mb 64f 62f
6:00pm 4ft 15s 9 11 mph 1023mb 64f 61f
5:00pm 4ft 7s 11 13 mph 1023mb 64f 61f
4:00pm 4ft 14s 11 13 mph 1022.9mb 64f 62f
3:00pm 4ft 14s 11 13 mph 1022.9mb 64f 62f
2:00pm 3.5ft 14s 11 13 mph 1023mb 64f 62f
1:00pm 4ft 7s 11 13 mph 1022.7mb 64f 63f
12:00pm 4ft 14s 11
mph
1022.7mb 64f 63f